South Wales, NY (14139)

9:28 AM EDT on September 30, 2014 (GMT -0400)
Fish Hill Farm | Change Station
CLOSE
Current Station
Personal Weather Station
Location: South Wales, NY
Elevation: 1414 ft
Nearby Weather Stations

Elev 1414 ft 42.70 °N, 78.49 °W | Updated 2 minutes ago

Clear
Clear
63.0 °F
Feels Like 63.0 °F
N
0.0
Wind Variable Wind from East
Gusts 5.0 mph

Today
High -- | Low -- °F
--% Chance of Precip.
Yesterday
High -- | Low -- °F
Precip. -- in
7:10 AM 6:57 PM
Waxing Crescent, 36% visible
Pressure 29.89 in
Visibility 10.0 miles
Clouds Few 5000 ft
Few 13000 ft
Few 20000 ft
Few 25000 ft
Dew Point 60 °F
Humidity 90%
Rainfall 0.00 in
Snow Depth Not available.
UV 0.0 out of 12
Pollen .90 out of 12
PM2.5 Moderate
Flu Activity Not available.
METAR KBUF 301254Z 15005KT 10SM FEW050 FEW130 FEW200 FEW250 14/11 A2989 RMK AO2 SLP122 T01440111

More Conditions Fewer Conditions

Pressure 29.89 in
Visibility 10.0 miles
Clouds Few 5000 ft
Few 13000 ft
Few 20000 ft
Few 25000 ft
Dew Point 60 °F
Humidity 90%
Rainfall 0.00 in
Snow Depth Not available.
UV 0.0 out of 12
Pollen .90 out of 12
PM2.5 Moderate
Flu Activity Not available.
METAR KBUF 301254Z 15005KT 10SM FEW050 FEW130 FEW200 FEW250 14/11 A2989 RMK AO2 SLP122 T01440111

More Conditions Fewer Conditions

10-Day Weather Forecast

Almanac

Astronomy

Sep. 30, 2014 Rise Set
Actual Time 7:10 AM EDT 6:57 PM EDT
Civil Twilight 6:42 AM EDT 7:25 PM EDT
Nautical Twilight 6:09 AM EDT 7:58 PM EDT
Astronomical Twilight 5:36 AM EDT 8:31 PM EDT
Moon 1:22 PM EDT 11:19 PM EDT
Length of Visible Light 12h 43m
Length of Day
11h 47m
Tomorrow will be 2m 53s shorter.
Waxing Crescent, 36% of the Moon is Illuminated
Today
Waxing Crescent
Oct 1
First Quarter
Oct 8
Full
Oct 15
Last Quarter
Oct 23
New

Today's Extremes

State Highs State Lows

Community

WunderPhotos

Upload Photos

1,757,637 photos uploaded!

Nearby

Air Quality

  Air Quality AQ Index Pollutant
Yesterday Moderate
PM2.5
Yesterday Good
OZONE
Current Moderate
PM2.5
Tuesday Moderate
PM2.5
Tuesday Good
OZONE

Snow Depth

Station Depth Elevation
No new snow has been reported.

Earthquake Activity

City Distance Mag. Time & Date
No recent earthquake activity has been reported nearby.
Minimum magnitude displayed is 2.5.

Coastal Water Temperatures

Place Temperature
Buffalo, NY 66.9 °F

Nearby Weather Stations